Time;durP1;ratioP1;P1;durP2;ratioP2;P2;SDS_P1;SDS_P2;PMS_P1;PMS_P2;Temp;Humidity;BMP_temperature;BMP_pressure;BME280_temperature;BME280_humidity;BME280_pressure;Samples;Min_cycle;Max_cycle;Signal;HPM_P1;HPM_P2
2022/10/05 00:02:19;;;;;;;17.97;10.97;;;10.30;97.60;;;;;;5063840;28;20487;-61
2022/10/05 00:04:46;;;;;;;26.20;11.47;;;10.30;97.60;;;;;;5072042;28;20490;-61
2022/10/05 00:07:16;;;;;;;27.63;14.27;;;10.20;97.50;;;;;;5074343;28;20513;-60
2022/10/05 00:09:45;;;;;;;27.67;14.80;;;10.20;97.60;;;;;;5069788;28;20865;-61
2022/10/05 00:12:16;;;;;;;24.63;11.50;;;10.20;97.70;;;;;;5070663;28;20475;-61
2022/10/05 00:14:45;;;;;;;29.67;14.10;;;10.10;97.50;;;;;;5059720;28;20970;-60
2022/10/05 00:17:16;;;;;;;27.90;13.20;;;10.10;97.40;;;;;;5070011;28;20684;-61
2022/10/05 00:19:45;;;;;;;27.97;12.37;;;8.30;96.90;;;;;;5075047;28;20506;-61
2022/10/05 00:22:16;;;;;;;25.47;12.17;;;10.00;97.20;;;;;;5072946;28;20555;-61
2022/10/05 00:24:43;;;;;;;35.73;13.60;;;10.00;97.20;;;;;;5071033;28;20481;-60
2022/10/05 00:27:18;;;;;;;25.60;13.10;;;10.00;97.20;;;;;;5053843;28;20493;-60
2022/10/05 00:29:45;;;;;;;20.80;11.03;;;9.90;97.60;;;;;;5066073;28;20810;-61
2022/10/05 00:32:12;;;;;;;24.77;11.37;;;9.70;97.80;;;;;;5072349;28;20625;-61
2022/10/05 00:34:39;;;;;;;21.23;10.77;;;9.50;97.60;;;;;;5072279;28;20486;-61
2022/10/05 00:37:07;;;;;;;42.67;13.30;;;;;;;;;;5069949;28;20786;-61
2022/10/05 00:39:38;;;;;;;48.53;16.20;;;9.20;98.20;;;;;;5072025;28;20474;-61
2022/10/05 00:42:20;;;;;;;37.10;12.20;;;9.10;98.10;;;;;;5070105;28;20691;-62
2022/10/05 00:44:54;;;;;;;27.97;11.50;;;9.10;98.50;;;;;;5057934;28;20729;-62
2022/10/05 00:47:31;;;;;;;50.43;14.40;;;;;;;;;;5071254;28;20474;-60
2022/10/05 00:50:13;;;;;;;48.47;15.03;;;9.20;98.50;;;;;;5063881;28;20470;-61
2022/10/05 00:52:46;;;;;;;121.50;17.47;;;;;;;;;;5062751;28;20513;-60
2022/10/05 00:55:21;;;;;;;51.07;15.37;;;;;;;;;;5073648;28;20503;-61
2022/10/05 00:57:58;;;;;;;91.13;15.90;;;9.10;99.70;;;;;;5073669;28;20473;-61
2022/10/05 01:00:26;;;;;;;55.77;15.60;;;8.80;99.30;;;;;;5066367;28;20492;-61
2022/10/05 01:02:59;;;;;;;43.97;13.37;;;8.80;99.20;;;;;;5072700;28;20474;-61
2022/10/05 01:05:38;;;;;;;47.70;17.30;;;8.80;99.00;;;;;;5050225;28;21073;-61
2022/10/05 01:08:18;;;;;;;20.03;10.47;;;8.80;98.80;;;;;;5073731;28;20573;-60
2022/10/05 01:10:53;;;;;;;26.63;12.60;;;8.80;98.70;;;;;;5074242;28;20938;-61
2022/10/05 01:13:31;;;;;;;27.00;13.47;;;8.90;98.60;;;;;;5073715;28;20466;-61
2022/10/05 01:16:07;;;;;;;18.03;10.00;;;8.90;98.80;;;;;;5062472;28;20774;-60
2022/10/05 01:18:40;;;;;;;22.03;13.27;;;8.90;99.00;;;;;;5070976;28;20481;-61
2022/10/05 01:21:16;;;;;;;21.03;12.80;;;8.90;99.10;;;;;;5070965;28;20482;-60
2022/10/05 01:24:21;;;;;;;15.87;10.30;;;6.80;98.20;;;;;;5074346;28;20479;-60
2022/10/05 01:27:18;;;;;;;19.10;11.03;;;8.90;99.30;;;;;;5074254;28;20490;-60
2022/10/05 01:29:52;;;;;;;14.80;10.03;;;8.90;99.40;;;;;;5072764;28;21017;-60
2022/10/05 01:32:25;;;;;;;20.30;11.73;;;8.90;99.10;;;;;;5071177;28;20494;-61
2022/10/05 01:35:00;;;;;;;16.70;11.43;;;8.90;98.50;;;;;;5070429;28;20483;-61
2022/10/05 01:37:36;;;;;;;24.87;13.37;;;8.80;98.30;;;;;;5064749;28;20478;-60
2022/10/05 01:40:12;;;;;;;13.27;9.93;;;8.80;98.30;;;;;;5056100;28;20722;-59
2022/10/05 01:42:49;;;;;;;19.00;9.83;;;8.80;98.50;;;;;;5067412;28;20994;-60
2022/10/05 01:45:26;;;;;;;12.60;8.37;;;8.80;98.50;;;;;;5065260;28;20583;-60
2022/10/05 01:47:59;;;;;;;16.43;11.20;;;8.80;98.70;;;;;;5057475;28;20465;-60
2022/10/05 01:50:33;;;;;;;21.13;13.43;;;8.80;98.80;;;;;;5053976;28;20474;-60
2022/10/05 01:53:07;;;;;;;15.53;8.30;;;8.70;98.80;;;;;;5061240;28;20479;-61
2022/10/05 01:55:41;;;;;;;15.00;10.77;;;8.70;98.70;;;;;;5061750;28;20489;-61
2022/10/05 01:58:13;;;;;;;28.30;9.40;;;8.60;98.90;;;;;;5070534;28;20482;-60
2022/10/05 02:00:49;;;;;;;15.43;9.80;;;8.60;99.30;;;;;;5071979;28;20485;-60
2022/10/05 02:03:19;;;;;;;12.67;8.30;;;8.60;99.60;;;;;;5073941;28;20505;-60
2022/10/05 02:05:51;;;;;;;14.83;10.50;;;8.60;99.90;;;;;;5068125;28;20536;-61
2022/10/05 02:08:25;;;;;;;13.23;8.83;;;8.60;99.90;;;;;;5064919;28;20482;-60
2022/10/05 02:10:59;;;;;;;17.57;10.87;;;10.00;99.90;;;;;;5071715;28;20478;-60
2022/10/05 02:13:32;;;;;;;16.20;12.13;;;8.60;99.90;;;;;;5069578;28;21025;-61
2022/10/05 02:16:03;;;;;;;37.83;12.00;;;8.60;99.90;;;;;;5073272;28;20489;-60
2022/10/05 02:18:36;;;;;;;24.60;14.53;;;8.60;99.90;;;;;;5069217;28;20486;-60
2022/10/05 02:21:04;;;;;;;15.03;10.60;;;;;;;;;;5072391;28;20837;-61
2022/10/05 02:23:34;;;;;;;26.13;15.00;;;8.60;99.90;;;;;;5071860;28;20470;-61
2022/10/05 02:26:01;;;;;;;14.97;10.37;;;8.70;99.90;;;;;;5071366;28;20482;-61
2022/10/05 02:28:31;;;;;;;25.40;14.43;;;8.60;99.90;;;;;;5070599;28;20490;-61
2022/10/05 02:31:05;;;;;;;20.00;11.43;;;8.80;99.90;;;;;;5072349;28;20485;-61
2022/10/05 02:33:34;;;;;;;22.57;13.97;;;8.90;99.90;;;;;;5058207;28;20492;-61
2022/10/05 02:36:02;;;;;;;25.90;11.77;;;9.00;99.90;;;;;;5072345;28;20497;-60
2022/10/05 02:38:36;;;;;;;17.90;12.07;;;9.10;99.90;;;;;;5068506;28;20478;-60
2022/10/05 02:41:12;;;;;;;18.40;11.67;;;9.20;99.90;;;;;;5071813;28;20465;-60
2022/10/05 02:43:47;;;;;;;10.80;9.00;;;9.30;99.90;;;;;;5058005;28;20493;-60
2022/10/05 02:46:24;;;;;;;14.40;9.93;;;9.40;99.90;;;;;;5069947;28;20477;-60
2022/10/05 02:49:03;;;;;;;21.30;10.80;;;9.50;99.90;;;;;;5070363;28;20561;-60
2022/10/05 02:51:38;;;;;;;21.90;13.20;;;9.50;99.90;;;;;;5071203;28;20470;-60
2022/10/05 02:54:15;;;;;;;15.87;10.30;;;9.50;99.90;;;;;;5068308;28;20466;-60
2022/10/05 02:56:50;;;;;;;15.70;9.87;;;9.60;99.90;;;;;;5059419;28;20474;-61
2022/10/05 02:59:24;;;;;;;15.43;9.60;;;9.70;99.90;;;;;;5069365;28;20469;-60
2022/10/05 03:01:58;;;;;;;16.07;10.30;;;9.70;99.90;;;;;;5070280;28;20482;-60
2022/10/05 03:04:33;;;;;;;21.57;11.87;;;9.80;99.90;;;;;;5067724;28;20513;-61
2022/10/05 03:07:08;;;;;;;14.60;10.77;;;9.70;99.90;;;;;;5072566;28;20627;-61
2022/10/05 03:09:41;;;;;;;15.70;10.43;;;9.60;99.90;;;;;;5071706;28;20473;-60
2022/10/05 03:12:17;;;;;;;16.60;10.80;;;9.60;99.90;;;;;;5067929;28;20473;-60
2022/10/05 03:14:57;;;;;;;18.13;12.23;;;9.70;99.90;;;;;;5060345;28;21021;-60
2022/10/05 03:17:30;;;;;;;16.37;12.20;;;9.60;99.90;;;;;;5069189;28;20477;-61
2022/10/05 03:20:11;;;;;;;15.30;10.13;;;9.60;99.90;;;;;;5055312;28;20494;-60
2022/10/05 03:22:47;;;;;;;17.30;11.50;;;9.70;99.90;;;;;;5062823;28;21261;-60
2022/10/05 03:25:31;;;;;;;12.33;8.97;;;9.80;99.90;;;;;;5063847;28;20462;-60
2022/10/05 03:28:05;;;;;;;21.43;11.67;;;10.00;99.90;;;;;;5073948;28;20478;-60
2022/10/05 03:30:40;;;;;;;35.33;12.50;;;10.00;99.90;;;;;;5060821;28;20836;-60
2022/10/05 03:33:14;;;;;;;23.90;10.03;;;10.00;99.90;;;;;;5074409;28;20472;-60
2022/10/05 03:35:50;;;;;;;54.47;12.77;;;10.00;99.90;;;;;;5076970;28;20478;-60
2022/10/05 03:38:23;;;;;;;20.40;11.77;;;10.10;99.90;;;;;;5070218;28;21005;-60
2022/10/05 03:40:52;;;;;;;20.03;11.30;;;;;;;;;;5073886;28;20494;-60
2022/10/05 03:43:32;;;;;;;20.67;11.80;;;10.20;99.90;;;;;;5072965;28;20481;-60
2022/10/05 03:46:06;;;;;;;38.80;8.93;;;10.20;99.90;;;;;;5071624;28;20490;-61
2022/10/05 03:48:41;;;;;;;38.30;13.80;;;10.20;99.90;;;;;;5074225;28;20481;-60
2022/10/05 03:51:15;;;;;;;20.00;11.13;;;10.20;99.90;;;;;;5074808;28;20735;-60
2022/10/05 03:53:47;;;;;;;23.93;10.03;;;10.20;99.90;;;;;;5069623;28;20466;-60
2022/10/05 03:56:19;;;;;;;17.30;9.20;;;10.00;99.90;;;;;;5072432;28;20817;-60
2022/10/05 03:58:52;;;;;;;24.23;10.87;;;10.10;99.90;;;;;;5071782;28;20477;-60
2022/10/05 04:01:24;;;;;;;16.73;8.80;;;10.20;99.90;;;;;;5071749;28;20739;-60
2022/10/05 04:03:56;;;;;;;20.50;10.50;;;10.10;99.90;;;;;;5071654;28;21197;-60
2022/10/05 04:06:26;;;;;;;25.53;13.23;;;10.20;99.90;;;;;;5071847;28;20490;-60
2022/10/05 04:08:59;;;;;;;15.43;10.37;;;10.20;99.90;;;;;;5074282;28;20927;-60
2022/10/05 04:11:29;;;;;;;34.87;16.40;;;10.30;99.90;;;;;;5071252;28;20566;-60
2022/10/05 04:14:00;;;;;;;21.50;11.27;;;10.30;99.90;;;;;;5074654;28;20486;-61
2022/10/05 04:16:31;;;;;;;24.53;14.50;;;10.30;99.90;;;;;;5068800;28;21004;-61
2022/10/05 04:19:03;;;;;;;20.03;10.83;;;10.30;99.90;;;;;;5054211;28;20489;-60
2022/10/05 04:21:32;;;;;;;25.10;14.83;;;10.40;99.90;;;;;;5071631;28;20673;-62
2022/10/05 04:24:04;;;;;;;19.67;12.97;;;10.40;99.90;;;;;;5069140;28;20482;-61
2022/10/05 04:26:37;;;;;;;26.23;15.60;;;10.50;99.90;;;;;;5073499;28;20990;-61
2022/10/05 04:29:12;;;;;;;29.93;12.43;;;10.50;99.90;;;;;;5072134;28;20483;-61
2022/10/05 04:32:01;;;;;;;14.77;9.67;;;10.50;99.90;;;;;;5071443;28;20493;-61
2022/10/05 04:34:45;;;;;;;25.13;13.60;;;10.40;99.90;;;;;;5069482;28;20484;-61
2022/10/05 04:37:18;;;;;;;16.17;10.23;;;10.40;99.90;;;;;;5073516;28;20470;-61
2022/10/05 04:39:51;;;;;;;19.47;11.87;;;10.40;99.90;;;;;;5061809;28;20477;-62
2022/10/05 04:42:28;;;;;;;17.60;10.27;;;10.40;99.90;;;;;;5061134;28;20833;-60
2022/10/05 04:45:09;;;;;;;17.10;11.80;;;10.50;99.90;;;;;;5070055;28;20517;-61
2022/10/05 04:47:57;;;;;;;21.57;12.77;;;10.40;99.90;;;;;;5073205;28;20474;-61
2022/10/05 04:50:48;;;;;;;26.63;14.33;;;10.20;99.90;;;;;;5060921;28;20479;-62
2022/10/05 04:53:29;;;;;;;13.10;8.00;;;10.10;99.90;;;;;;5077328;28;20481;-61
2022/10/05 04:56:01;;;;;;;18.23;10.50;;;10.10;99.90;;;;;;5061790;28;20855;-62
2022/10/05 04:58:49;;;;;;;26.67;16.53;;;10.20;99.90;;;;;;5072122;28;20486;-61
2022/10/05 05:01:37;;;;;;;16.07;11.80;;;10.30;99.90;;;;;;5061456;28;20470;-62
2022/10/05 05:04:28;;;;;;;19.37;11.50;;;10.60;99.90;;;;;;5072967;28;20481;-62
2022/10/05 05:07:06;;;;;;;16.40;11.83;;;10.70;99.90;;;;;;5073199;28;21090;-62
2022/10/05 05:09:57;;;;;;;26.50;16.70;;;10.80;99.90;;;;;;5068209;28;20851;-62
2022/10/05 05:12:32;;;;;;;23.00;12.37;;;11.00;99.90;;;;;;5061095;28;20471;-62
2022/10/05 05:15:22;;;;;;;23.67;15.40;;;11.10;99.90;;;;;;5026815;28;1261052;-62
2022/10/05 05:18:06;;;;;;;27.77;18.00;;;11.30;99.90;;;;;;5059772;28;20252;-63
2022/10/05 05:20:47;;;;;;;27.00;15.73;;;11.40;99.90;;;;;;5072780;28;20473;-62
2022/10/05 05:23:23;;;;;;;26.47;16.00;;;11.50;99.90;;;;;;5072305;28;20475;-62
2022/10/05 05:25:59;;;;;;;29.57;17.80;;;11.70;99.90;;;;;;5063605;28;21696;-61
2022/10/05 05:28:35;;;;;;;35.63;19.33;;;11.70;99.90;;;;;;5070913;28;20489;-62
2022/10/05 05:31:09;;;;;;;51.60;24.13;;;11.80;99.90;;;;;;5072776;28;20490;-62
2022/10/05 05:33:40;;;;;;;49.30;21.60;;;;;;;;;;5072433;28;20486;-62
2022/10/05 05:36:22;;;;;;;38.63;18.23;;;11.80;99.90;;;;;;5072965;28;20755;-61
2022/10/05 05:39:03;;;;;;;28.37;14.30;;;11.80;99.90;;;;;;5061713;28;20474;-62
2022/10/05 05:41:36;;;;;;;30.47;15.97;;;11.80;99.90;;;;;;5067962;28;20779;-62
2022/10/05 05:44:13;;;;;;;37.27;17.03;;;11.90;99.90;;;;;;5069085;28;20481;-62
2022/10/05 05:46:44;;;;;;;19.60;13.07;;;11.90;99.90;;;;;;5068605;28;20502;-62
2022/10/05 05:49:17;;;;;;;24.47;13.60;;;12.00;99.90;;;;;;5059974;28;22675;-62
2022/10/05 05:51:50;;;;;;;26.47;15.17;;;12.00;99.90;;;;;;5070072;28;20505;-61
2022/10/05 05:54:30;;;;;;;33.10;12.87;;;12.10;99.90;;;;;;5065996;28;20474;-62
2022/10/05 05:57:07;;;;;;;36.53;16.53;;;12.10;99.90;;;;;;5062572;28;20478;-62
2022/10/05 05:59:52;;;;;;;51.93;15.83;;;12.00;99.90;;;;;;5070174;28;20482;-62
2022/10/05 06:02:23;;;;;;;46.50;17.97;;;12.00;99.90;;;;;;5059469;28;20804;-62
2022/10/05 06:04:56;;;;;;;26.70;14.63;;;12.00;99.90;;;;;;5073175;28;20479;-62
2022/10/05 06:07:28;;;;;;;66.57;21.87;;;12.00;99.90;;;;;;5073320;28;21139;-62
2022/10/05 06:10:01;;;;;;;36.53;15.57;;;12.00;99.90;;;;;;5061363;28;20489;-62
2022/10/05 06:12:34;;;;;;;57.03;18.63;;;12.00;99.90;;;;;;5073019;28;20854;-62
2022/10/05 06:15:04;;;;;;;21.87;11.87;;;12.10;99.90;;;;;;5059569;28;20896;-62
2022/10/05 06:17:37;;;;;;;52.57;16.93;;;12.00;99.90;;;;;;5060873;28;20530;-63
2022/10/05 06:20:12;;;;;;;98.80;19.90;;;12.00;99.90;;;;;;5068145;28;21008;-61
2022/10/05 06:22:42;;;;;;;28.10;12.30;;;12.10;99.90;;;;;;5068837;28;20798;-62
2022/10/05 06:25:24;;;;;;;45.23;14.77;;;12.00;99.90;;;;;;5069947;28;20914;-61
2022/10/05 06:28:08;;;;;;;61.53;18.27;;;12.10;99.90;;;;;;5070854;28;20781;-60
2022/10/05 06:30:50;;;;;;;39.80;16.70;;;12.10;99.90;;;;;;5071494;28;20679;-61
2022/10/05 06:33:24;;;;;;;34.47;13.20;;;12.10;99.90;;;;;;5068579;28;21095;-61
2022/10/05 06:36:06;;;;;;;40.87;13.43;;;12.20;99.90;;;;;;5061115;28;20561;-60
2022/10/05 06:39:03;;;;;;;30.10;13.97;;;12.20;99.90;;;;;;5071793;28;20481;-61
2022/10/05 06:41:43;;;;;;;26.93;13.77;;;12.20;99.90;;;;;;5060617;28;20490;-61
2022/10/05 06:44:13;;;;;;;34.53;13.43;;;12.10;99.90;;;;;;5071066;28;20493;-61
2022/10/05 06:46:50;;;;;;;34.07;12.03;;;12.20;99.90;;;;;;5061920;28;21006;-61
2022/10/05 06:49:20;;;;;;;26.90;12.47;;;12.20;99.90;;;;;;5069785;28;20481;-61
2022/10/05 06:51:59;;;;;;;28.63;11.60;;;12.10;99.90;;;;;;5072370;28;20575;-61
2022/10/05 06:54:41;;;;;;;71.80;17.30;;;12.30;99.90;;;;;;5058718;28;20797;-61
2022/10/05 06:57:13;;;;;;;35.80;14.70;;;;;;;;;;5062295;28;20557;-61
2022/10/05 06:59:46;;;;;;;68.67;16.33;;;12.30;99.90;;;;;;5071007;28;20832;-62
2022/10/05 07:02:23;;;;;;;30.13;13.80;;;12.30;99.90;;;;;;5071692;28;20742;-62
2022/10/05 07:05:11;;;;;;;93.00;17.50;;;12.40;99.90;;;;;;5072276;28;20470;-62
2022/10/05 07:07:43;;;;;;;73.03;14.63;;;;;;;;;;5068501;28;20490;-61
2022/10/05 07:10:21;;;;;;;28.53;11.70;;;12.50;99.90;;;;;;5070784;28;20839;-61
2022/10/05 07:13:07;;;;;;;41.57;16.93;;;12.40;99.90;;;;;;5071106;28;20473;-61
2022/10/05 07:15:41;;;;;;;26.33;13.13;;;12.50;99.90;;;;;;5070990;28;20835;-60
2022/10/05 07:18:30;;;;;;;20.77;10.87;;;12.60;99.90;;;;;;5071511;28;20492;-61
2022/10/05 07:21:03;;;;;;;31.03;11.80;;;12.60;99.90;;;;;;5057506;28;20573;-61
2022/10/05 07:23:45;;;;;;;34.67;15.57;;;12.70;99.90;;;;;;5060566;28;20553;-60
2022/10/05 07:26:18;;;;;;;31.67;12.83;;;12.80;99.90;;;;;;5069067;28;20768;-60
2022/10/05 07:28:50;;;;;;;35.63;13.33;;;12.80;99.90;;;;;;5071427;28;20493;-61
2022/10/05 07:31:27;;;;;;;25.53;11.77;;;12.80;99.90;;;;;;5071118;28;21040;-61
2022/10/05 07:34:01;;;;;;;30.13;13.93;;;12.90;99.90;;;;;;5060531;28;20470;-61
2022/10/05 07:39:28;;;;;;;43.07;14.97;;;12.80;99.90;;;;;;5068997;28;21058;-60
2022/10/05 07:42:03;;;;;;;26.33;11.37;;;12.90;99.90;;;;;;5071051;28;20477;-61
2022/10/05 07:44:36;;;;;;;24.97;13.03;;;13.00;99.90;;;;;;5061226;28;20466;-61
2022/10/05 07:47:10;;;;;;;20.27;10.90;;;13.10;99.90;;;;;;5072686;28;20863;-60
2022/10/05 07:49:46;;;;;;;24.23;14.07;;;13.10;99.90;;;;;;5068998;28;21024;-61
2022/10/05 07:52:17;;;;;;;27.20;12.87;;;13.00;99.90;;;;;;5072395;28;20908;-60
2022/10/05 07:54:55;;;;;;;16.10;11.60;;;13.10;99.90;;;;;;5069784;28;20810;-61
2022/10/05 07:57:31;;;;;;;38.00;14.37;;;13.20;99.90;;;;;;5072267;28;21102;-60
2022/10/05 08:00:04;;;;;;;27.77;13.17;;;13.30;99.90;;;;;;5059252;28;20474;-60
2022/10/05 08:02:40;;;;;;;29.13;13.20;;;13.40;99.90;;;;;;5059793;28;20488;-60
2022/10/05 08:05:13;;;;;;;28.33;12.73;;;13.40;99.90;;;;;;5069005;28;20502;-60
2022/10/05 08:07:40;;;;;;;28.47;13.73;;;13.50;99.90;;;;;;5070157;28;20795;-60
2022/10/05 08:10:22;;;;;;;41.23;19.93;;;13.60;99.90;;;;;;5067522;28;26415;-60
2022/10/05 08:13:02;;;;;;;32.30;12.63;;;13.70;99.90;;;;;;5061979;28;20490;-61
2022/10/05 08:15:34;;;;;;;25.60;14.93;;;13.60;99.90;;;;;;5050991;28;20906;-61
2022/10/05 08:18:03;;;;;;;24.47;12.47;;;13.60;99.90;;;;;;5054066;28;20494;-61
2022/10/05 08:20:39;;;;;;;38.23;18.73;;;13.60;99.90;;;;;;5059870;28;20481;-61
2022/10/05 08:23:17;;;;;;;13.53;8.40;;;13.70;99.90;;;;;;5054000;28;20497;-61
2022/10/05 08:25:50;;;;;;;35.10;15.37;;;13.80;99.90;;;;;;5071056;28;20480;-61
2022/10/05 08:28:22;;;;;;;28.07;16.27;;;13.80;99.90;;;;;;5068440;28;20482;-60
2022/10/05 08:30:55;;;;;;;24.77;13.17;;;13.90;99.90;;;;;;5074537;28;20486;-61
2022/10/05 08:33:23;;;;;;;21.87;15.00;;;14.00;99.90;;;;;;5067553;28;20493;-61
2022/10/05 08:35:59;;;;;;;22.50;10.53;;;14.00;99.90;;;;;;5070168;28;20998;-61
2022/10/05 08:38:33;;;;;;;24.53;16.00;;;14.50;99.90;;;;;;5072707;28;20474;-61
2022/10/05 08:41:33;;;;;;;25.57;14.77;;;14.20;99.90;;;;;;5064046;28;20482;-61
2022/10/05 08:44:33;;;;;;;23.03;15.33;;;14.30;99.90;;;;;;5073891;28;20479;-61
2022/10/05 08:47:16;;;;;;;20.40;13.80;;;14.40;99.90;;;;;;5049150;28;20548;-61
2022/10/05 08:50:08;;;;;;;19.60;12.77;;;14.40;99.90;;;;;;5073192;28;20509;-62
2022/10/05 08:52:52;;;;;;;20.50;14.03;;;14.60;99.90;;;;;;5073659;28;20489;-61
2022/10/05 08:55:38;;;;;;;19.57;11.77;;;14.60;99.90;;;;;;5073336;28;20466;-60
2022/10/05 08:58:26;;;;;;;29.10;12.30;;;15.10;99.90;;;;;;5072426;28;20478;-61
2022/10/05 09:01:00;;;;;;;22.70;15.20;;;14.90;99.90;;;;;;5072983;28;20671;-62
2022/10/05 09:04:12;;;;;;;23.23;11.70;;;15.10;99.90;;;;;;5073218;28;20490;-61
2022/10/05 09:07:07;;;;;;;20.00;11.53;;;15.30;99.90;;;;;;5064648;28;20466;-61
2022/10/05 09:10:10;;;;;;;16.83;12.43;;;15.40;99.90;;;;;;5060896;28;20533;-61
2022/10/05 09:12:51;;;;;;;19.17;10.63;;;15.20;99.90;;;;;;5051498;28;20482;-61
2022/10/05 09:15:37;;;;;;;14.77;9.97;;;15.10;99.90;;;;;;5068638;28;20478;-61
2022/10/05 09:18:33;;;;;;;15.87;11.80;;;15.10;99.90;;;;;;5071076;28;20486;-62
2022/10/05 09:21:05;;;;;;;14.87;11.87;;;15.10;99.90;;;;;;5074161;28;20779;-61
2022/10/05 09:23:39;;;;;;;16.43;13.13;;;15.20;99.90;;;;;;5073441;28;20482;-61
2022/10/05 09:26:09;;;;;;;14.53;10.20;;;15.20;99.90;;;;;;5062273;28;20479;-61
2022/10/05 09:28:53;;;;;;;22.33;12.00;;;15.30;99.90;;;;;;5061676;28;20462;-62
2022/10/05 09:31:41;;;;;;;15.80;12.03;;;15.50;99.90;;;;;;5070346;28;20466;-61
2022/10/05 09:34:48;;;;;;;16.90;11.50;;;15.80;99.90;;;;;;5072389;28;20481;-61
2022/10/05 09:37:40;;;;;;;19.57;10.33;;;16.00;99.90;;;;;;5064167;28;20450;-61
2022/10/05 09:40:43;;;;;;;16.70;10.80;;;16.20;99.90;;;;;;5057392;28;20475;-61
2022/10/05 09:43:50;;;;;;;114.47;21.03;;;16.40;99.90;;;;;;5047063;28;21093;-61
2022/10/05 09:46:42;;;;;;;60.93;15.57;;;16.70;99.90;;;;;;5072369;28;20767;-61
2022/10/05 09:49:31;;;;;;;49.60;14.43;;;16.90;99.90;;;;;;5054634;28;20600;-62
2022/10/05 09:52:18;;;;;;;50.40;14.67;;;17.10;99.90;;;;;;5072636;28;20482;-62
2022/10/05 09:55:24;;;;;;;66.93;16.20;;;17.20;99.90;;;;;;5060923;28;20475;-63
2022/10/05 09:58:33;;;;;;;49.40;17.77;;;18.90;99.90;;;;;;5069521;28;20483;-62
2022/10/05 10:01:19;;;;;;;38.73;14.47;;;;;;;;;;5065891;28;20498;-63
2022/10/05 10:04:05;;;;;;;29.67;13.70;;;;;;;;;;5071776;28;20478;-63
2022/10/05 10:07:10;;;;;;;47.73;18.77;;;17.70;99.90;;;;;;5072247;28;20540;-63
2022/10/05 10:09:44;;;;;;;28.93;13.17;;;18.00;99.90;;;;;;5072117;28;20517;-63
2022/10/05 10:12:36;;;;;;;16.53;9.90;;;18.20;99.90;;;;;;5070100;28;20492;-63
2022/10/05 10:15:34;;;;;;;16.73;10.90;;;18.40;99.90;;;;;;5070930;28;20479;-63
2022/10/05 10:18:23;;;;;;;33.77;20.30;;;18.40;99.90;;;;;;5066654;28;21936;-63
2022/10/05 10:21:19;;;;;;;25.90;13.23;;;18.40;99.90;;;;;;5065674;28;20479;-63
2022/10/05 10:24:12;;;;;;;22.37;12.63;;;18.60;99.90;;;;;;5073184;28;20478;-63
2022/10/05 10:26:58;;;;;;;16.73;11.97;;;;;;;;;;5070947;28;20485;-64
2022/10/05 10:30:02;;;;;;;19.33;13.23;;;18.80;99.90;;;;;;5059822;28;20486;-64
2022/10/05 10:33:02;;;;;;;27.10;14.70;;;19.00;99.90;;;;;;5069336;28;20474;-64
2022/10/05 10:35:36;;;;;;;22.50;16.47;;;19.20;99.90;;;;;;5071311;28;20449;-64
2022/10/05 10:38:31;;;;;;;21.43;12.20;;;19.20;99.90;;;;;;5072130;28;23181;-63
2022/10/05 10:41:28;;;;;;;30.87;12.47;;;19.20;99.90;;;;;;5068855;28;20688;-64
2022/10/05 10:44:40;;;;;;;15.80;11.70;;;19.50;99.90;;;;;;5067646;28;21005;-64
2022/10/05 10:47:35;;;;;;;15.37;10.87;;;19.50;99.90;;;;;;5069485;28;20482;-63
2022/10/05 10:50:27;;;;;;;18.93;11.87;;;19.80;99.90;;;;;;5069886;28;20944;-64
2022/10/05 10:53:08;;;;;;;14.17;11.33;;;19.90;99.90;;;;;;5066967;28;21135;-63
2022/10/05 10:55:42;;;;;;;19.13;12.80;;;20.10;99.90;;;;;;5064334;28;20799;-63
2022/10/05 10:58:41;;;;;;;11.43;8.87;;;20.30;99.90;;;;;;5070582;28;20874;-64
2022/10/05 11:01:18;;;;;;;19.43;9.53;;;;;;;;;;5070077;28;21100;-64
2022/10/05 11:04:12;;;;;;;12.47;10.03;;;20.20;99.90;;;;;;5062979;28;20466;-63
2022/10/05 11:07:05;;;;;;;27.53;12.00;;;20.40;99.90;;;;;;5071229;28;20471;-64
2022/10/05 11:09:54;;;;;;;26.03;11.73;;;20.60;99.90;;;;;;5068645;28;20938;-64
2022/10/05 11:12:57;;;;;;;18.17;11.93;;;20.70;99.90;;;;;;5061229;28;20468;-64
2022/10/05 11:15:45;;;;;;;21.30;13.23;;;;;;;;;;5047114;28;20575;-64
2022/10/05 11:18:19;;;;;;;22.63;10.20;;;21.00;99.90;;;;;;5063916;28;20942;-65
2022/10/05 11:21:22;;;;;;;17.53;7.63;;;21.10;99.90;;;;;;5071233;28;20478;-64
2022/10/05 11:24:05;;;;;;;11.50;8.73;;;;;;;;;;5070207;28;20487;-63
2022/10/05 11:26:51;;;;;;;20.43;12.07;;;21.50;99.90;;;;;;5072242;28;20496;-64
2022/10/05 11:29:42;;;;;;;7.07;6.17;;;21.70;99.90;;;;;;5055454;28;20475;-64
2022/10/05 11:32:32;;;;;;;10.30;6.57;;;21.90;99.90;;;;;;5071932;28;20474;-64
2022/10/05 11:35:23;;;;;;;17.93;7.63;;;21.90;99.90;;;;;;5070528;28;20481;-64
2022/10/05 11:38:10;;;;;;;18.67;7.67;;;21.90;99.90;;;;;;5060159;28;21269;-64
2022/10/05 11:41:16;;;;;;;12.97;8.80;;;21.70;99.90;;;;;;5060927;28;20863;-65
2022/10/05 11:43:52;;;;;;;5.77;5.27;;;;;;;;;;5072185;28;20466;-65
2022/10/05 11:46:25;;;;;;;8.57;6.03;;;21.80;99.90;;;;;;5071841;28;20948;-65
2022/10/05 11:49:13;;;;;;;14.50;6.97;;;22.00;99.90;;;;;;5062217;28;20791;-64
2022/10/05 11:51:47;;;;;;;9.67;6.93;;;21.80;99.90;;;;;;5075656;28;20482;-64
2022/10/05 11:54:22;;;;;;;6.17;5.53;;;;;;;;;;5056030;28;20449;-64
2022/10/05 11:56:52;;;;;;;8.67;7.40;;;23.60;99.90;;;;;;5080590;28;20493;-64
2022/10/05 11:59:25;;;;;;;9.37;5.93;;;21.80;99.90;;;;;;5073512;28;20448;-64
2022/10/05 12:01:57;;;;;;;22.77;8.00;;;21.90;99.90;;;;;;5060808;28;20508;-64
2022/10/05 12:04:36;;;;;;;11.90;8.53;;;22.00;99.90;;;;;;5075176;28;20988;-64
2022/10/05 12:07:14;;;;;;;6.60;6.00;;;22.00;99.90;;;;;;5054932;28;20453;-64
2022/10/05 12:10:18;;;;;;;7.90;6.33;;;;;;;;;;5072642;28;20459;-64
2022/10/05 12:12:57;;;;;;;8.20;6.27;;;22.40;99.90;;;;;;5063118;28;20986;-64
2022/10/05 12:15:30;;;;;;;8.73;6.27;;;22.70;99.90;;;;;;5058674;28;20460;-64
2022/10/05 12:18:07;;;;;;;8.37;6.13;;;22.70;99.80;;;;;;5056180;28;20784;-63
2022/10/05 12:20:39;;;;;;;10.93;7.33;;;22.70;99.10;;;;;;5068438;28;20484;-64
2022/10/05 12:23:14;;;;;;;8.60;6.17;;;22.80;99.90;;;;;;5074896;28;20453;-64
2022/10/05 12:25:45;;;;;;;8.57;5.50;;;;;;;;;;5075408;28;20493;-65
2022/10/05 12:28:18;;;;;;;11.90;4.70;;;22.90;98.50;;;;;;5069231;28;20486;-64
2022/10/05 12:30:56;;;;;;;5.53;4.10;;;;;;;;;;5073614;28;20969;-64
2022/10/05 12:33:28;;;;;;;13.57;4.77;;;23.00;98.90;;;;;;5064583;28;20461;-65
2022/10/05 12:35:58;;;;;;;9.03;5.40;;;;;;;;;;5060954;28;20632;-65
2022/10/05 12:38:33;;;;;;;9.77;6.20;;;22.90;97.30;;;;;;5053127;28;20502;-65
2022/10/05 12:41:08;;;;;;;12.90;4.63;;;22.90;97.60;;;;;;5061158;28;20979;-64
2022/10/05 12:43:45;;;;;;;6.30;4.90;;;23.00;98.20;;;;;;5069118;28;20562;-64
2022/10/05 12:46:22;;;;;;;3.90;3.43;;;23.20;98.10;;;;;;5065319;28;20545;-64
2022/10/05 12:49:20;;;;;;;8.10;4.33;;;23.30;97.00;;;;;;5068785;28;20464;-65
2022/10/05 12:51:55;;;;;;;4.03;3.57;;;24.40;98.40;;;;;;5043671;28;20789;-64
2022/10/05 12:54:36;;;;;;;24.43;4.10;;;23.40;96.90;;;;;;5065156;28;20486;-64
2022/10/05 12:57:08;;;;;;;5.50;3.13;;;23.20;96.20;;;;;;5054453;28;20445;-64
2022/10/05 12:59:41;;;;;;;6.57;2.80;;;23.30;95.60;;;;;;5063599;28;20456;-63
2022/10/05 13:02:18;;;;;;;8.80;4.10;;;23.20;95.40;;;;;;5067919;28;20480;-64
2022/10/05 13:04:51;;;;;;;6.03;3.63;;;23.30;94.60;;;;;;5069580;28;20792;-64
2022/10/05 13:07:43;;;;;;;8.23;3.37;;;23.10;94.10;;;;;;5072448;28;20474;-64
2022/10/05 13:10:33;;;;;;;10.10;3.40;;;23.00;94.70;;;;;;5048856;28;20875;-65
2022/10/05 13:13:16;;;;;;;4.10;3.20;;;23.30;95.90;;;;;;5072493;28;20943;-64
2022/10/05 13:15:49;;;;;;;2.73;2.53;;;23.40;96.20;;;;;;5074851;28;20478;-64
2022/10/05 13:18:24;;;;;;;3.67;3.37;;;23.50;95.50;;;;;;5072713;28;20461;-65
2022/10/05 13:20:57;;;;;;;5.27;2.90;;;23.60;95.20;;;;;;5070841;28;20489;-64
2022/10/05 13:23:30;;;;;;;3.70;3.10;;;23.90;94.70;;;;;;5072406;28;20476;-64
2022/10/05 13:26:05;;;;;;;7.90;3.00;;;23.50;94.80;;;;;;5071502;28;20482;-64
2022/10/05 13:28:39;;;;;;;8.00;2.67;;;23.20;93.70;;;;;;5072003;28;20863;-65
2022/10/05 13:31:13;;;;;;;4.73;2.67;;;23.30;94.30;;;;;;5062491;28;20453;-65
2022/10/05 13:33:55;;;;;;;4.00;2.47;;;23.40;94.00;;;;;;5059584;28;20486;-64
2022/10/05 13:36:33;;;;;;;5.07;3.00;;;23.50;94.40;;;;;;5068380;28;20505;-64
2022/10/05 13:39:13;;;;;;;4.60;2.40;;;23.30;93.80;;;;;;5070518;28;21085;-65
2022/10/05 13:41:51;;;;;;;11.23;2.77;;;23.40;94.10;;;;;;5063270;28;20600;-64